sensor_id;sensor_type;location;lat;lon;timestamp;temperature;humidity
16901;DHT22;8567;52.540;6.434;2024-03-23T00:54:11;19.60;52.20
16901;DHT22;8567;52.540;6.434;2024-03-23T00:56:38;19.70;52.20
16901;DHT22;8567;52.540;6.434;2024-03-23T00:59:05;19.70;52.30
16901;DHT22;8567;52.540;6.434;2024-03-23T01:01:32;19.70;52.40
16901;DHT22;8567;52.540;6.434;2024-03-23T01:03:58;19.60;52.50
16901;DHT22;8567;52.540;6.434;2024-03-23T01:06:25;19.60;52.60
16901;DHT22;8567;52.540;6.434;2024-03-23T01:08:51;19.70;52.70
16901;DHT22;8567;52.540;6.434;2024-03-23T01:11:18;19.70;52.60
16901;DHT22;8567;52.540;6.434;2024-03-23T01:13:44;19.70;52.70
16901;DHT22;8567;52.540;6.434;2024-03-23T01:16:12;19.70;52.80
16901;DHT22;8567;52.540;6.434;2024-03-23T01:18:38;19.60;52.90
16901;DHT22;8567;52.540;6.434;2024-03-23T01:21:04;19.60;52.90
16901;DHT22;8567;52.540;6.434;2024-03-23T01:23:31;19.70;52.90
16901;DHT22;8567;52.540;6.434;2024-03-23T01:25:57;19.60;53.00
16901;DHT22;8567;52.540;6.434;2024-03-23T01:28:24;19.60;53.00
16901;DHT22;8567;52.540;6.434;2024-03-23T01:30:49;19.70;53.10
16901;DHT22;8567;52.540;6.434;2024-03-23T01:33:17;19.60;53.10
16901;DHT22;8567;52.540;6.434;2024-03-23T01:35:43;19.60;53.10
16901;DHT22;8567;52.540;6.434;2024-03-23T01:38:10;19.60;53.10
16901;DHT22;8567;52.540;6.434;2024-03-23T01:40:36;19.70;53.10
16901;DHT22;8567;52.540;6.434;2024-03-23T01:43:05;19.60;53.10
16901;DHT22;8567;52.540;6.434;2024-03-23T01:45:31;19.60;53.20
16901;DHT22;8567;52.540;6.434;2024-03-23T01:47:58;19.60;53.20
16901;DHT22;8567;52.540;6.434;2024-03-23T01:50:26;19.60;53.20
16901;DHT22;8567;52.540;6.434;2024-03-23T01:52:53;19.70;53.30
16901;DHT22;8567;52.540;6.434;2024-03-23T01:55:19;19.60;53.30
16901;DHT22;8567;52.540;6.434;2024-03-23T01:57:46;19.70;53.20
16901;DHT22;8567;52.540;6.434;2024-03-23T02:00:13;19.70;53.30
16901;DHT22;8567;52.540;6.434;2024-03-23T02:02:43;19.60;53.30
16901;DHT22;8567;52.540;6.434;2024-03-23T02:05:10;19.60;53.40
16901;DHT22;8567;52.540;6.434;2024-03-23T02:07:39;19.70;53.40
16901;DHT22;8567;52.540;6.434;2024-03-23T02:10:06;19.70;53.40
16901;DHT22;8567;52.540;6.434;2024-03-23T02:12:33;19.70;53.40
16901;DHT22;8567;52.540;6.434;2024-03-23T02:14:59;19.70;53.40
16901;DHT22;8567;52.540;6.434;2024-03-23T02:17:26;19.60;53.40
16901;DHT22;8567;52.540;6.434;2024-03-23T02:19:52;19.70;53.50
16901;DHT22;8567;52.540;6.434;2024-03-23T02:22:19;19.60;53.50
16901;DHT22;8567;52.540;6.434;2024-03-23T02:24:46;19.70;53.50
16901;DHT22;8567;52.540;6.434;2024-03-23T02:27:12;19.60;53.60
16901;DHT22;8567;52.540;6.434;2024-03-23T02:29:38;19.60;53.60
16901;DHT22;8567;52.540;6.434;2024-03-23T02:32:06;19.60;53.60
16901;DHT22;8567;52.540;6.434;2024-03-23T02:34:34;19.70;53.50
16901;DHT22;8567;52.540;6.434;2024-03-23T02:37:01;19.60;53.60
16901;DHT22;8567;52.540;6.434;2024-03-23T02:39:27;19.60;53.60
16901;DHT22;8567;52.540;6.434;2024-03-23T02:41:55;19.60;53.60
16901;DHT22;8567;52.540;6.434;2024-03-23T02:44:21;19.60;53.60
16901;DHT22;8567;52.540;6.434;2024-03-23T02:46:48;19.60;53.60
16901;DHT22;8567;52.540;6.434;2024-03-23T02:49:14;19.60;53.70
16901;DHT22;8567;52.540;6.434;2024-03-23T02:51:41;19.60;53.70
16901;DHT22;8567;52.540;6.434;2024-03-23T02:54:07;19.60;53.70
16901;DHT22;8567;52.540;6.434;2024-03-23T02:56:34;19.60;53.70
16901;DHT22;8567;52.540;6.434;2024-03-23T02:59:01;19.60;53.70
16901;DHT22;8567;52.540;6.434;2024-03-23T03:01:28;19.60;53.80
16901;DHT22;8567;52.540;6.434;2024-03-23T03:03:53;19.70;53.80
16901;DHT22;8567;52.540;6.434;2024-03-23T03:06:24;19.60;53.80
16901;DHT22;8567;52.540;6.434;2024-03-23T03:08:50;19.60;53.70
16901;DHT22;8567;52.540;6.434;2024-03-23T03:11:16;19.60;53.80
16901;DHT22;8567;52.540;6.434;2024-03-23T03:13:42;19.60;53.80
16901;DHT22;8567;52.540;6.434;2024-03-23T03:16:10;19.60;53.80
16901;DHT22;8567;52.540;6.434;2024-03-23T03:18:37;19.60;53.80
16901;DHT22;8567;52.540;6.434;2024-03-23T03:21:04;19.60;53.90
16901;DHT22;8567;52.540;6.434;2024-03-23T03:23:31;19.70;53.80
16901;DHT22;8567;52.540;6.434;2024-03-23T03:25:58;19.60;53.80
16901;DHT22;8567;52.540;6.434;2024-03-23T03:28:24;19.70;53.80
16901;DHT22;8567;52.540;6.434;2024-03-23T03:30:51;19.60;53.80
16901;DHT22;8567;52.540;6.434;2024-03-23T03:33:18;19.60;53.80
16901;DHT22;8567;52.540;6.434;2024-03-23T03:35:45;19.60;53.80
16901;DHT22;8567;52.540;6.434;2024-03-23T03:38:11;19.60;53.80
16901;DHT22;8567;52.540;6.434;2024-03-23T03:40:38;19.60;53.80
16901;DHT22;8567;52.540;6.434;2024-03-23T03:43:04;19.60;53.80
16901;DHT22;8567;52.540;6.434;2024-03-23T03:45:30;19.60;53.70
16901;DHT22;8567;52.540;6.434;2024-03-23T03:47:56;19.60;53.70
16901;DHT22;8567;52.540;6.434;2024-03-23T03:50:26;19.60;53.70
16901;DHT22;8567;52.540;6.434;2024-03-23T03:52:51;19.60;53.70
16901;DHT22;8567;52.540;6.434;2024-03-23T03:55:18;19.60;53.60
16901;DHT22;8567;52.540;6.434;2024-03-23T03:57:44;19.60;53.70
16901;DHT22;8567;52.540;6.434;2024-03-23T04:00:12;19.60;53.60
16901;DHT22;8567;52.540;6.434;2024-03-23T04:02:38;19.60;53.60
16901;DHT22;8567;52.540;6.434;2024-03-23T04:05:05;19.60;53.60
16901;DHT22;8567;52.540;6.434;2024-03-23T04:07:33;19.60;53.60
16901;DHT22;8567;52.540;6.434;2024-03-23T04:09:59;19.60;53.60
16901;DHT22;8567;52.540;6.434;2024-03-23T04:12:25;19.60;53.60
16901;DHT22;8567;52.540;6.434;2024-03-23T04:14:52;19.60;53.60
16901;DHT22;8567;52.540;6.434;2024-03-23T04:17:19;19.60;53.60
16901;DHT22;8567;52.540;6.434;2024-03-23T04:19:46;19.60;53.60
16901;DHT22;8567;52.540;6.434;2024-03-23T04:22:12;19.60;53.60
16901;DHT22;8567;52.540;6.434;2024-03-23T04:24:40;19.60;53.60
16901;DHT22;8567;52.540;6.434;2024-03-23T04:27:06;19.60;53.60
16901;DHT22;8567;52.540;6.434;2024-03-23T04:29:33;19.60;53.60
16901;DHT22;8567;52.540;6.434;2024-03-23T04:31:59;19.60;53.60
16901;DHT22;8567;52.540;6.434;2024-03-23T04:34:27;19.60;53.50
16901;DHT22;8567;52.540;6.434;2024-03-23T04:36:52;19.60;53.50
16901;DHT22;8567;52.540;6.434;2024-03-23T04:39:19;19.60;53.50
16901;DHT22;8567;52.540;6.434;2024-03-23T04:41:47;19.60;53.50
16901;DHT22;8567;52.540;6.434;2024-03-23T04:44:14;19.60;53.50
16901;DHT22;8567;52.540;6.434;2024-03-23T04:46:41;19.60;53.50
16901;DHT22;8567;52.540;6.434;2024-03-23T04:49:08;19.60;53.40
16901;DHT22;8567;52.540;6.434;2024-03-23T04:51:36;19.60;53.40
16901;DHT22;8567;52.540;6.434;2024-03-23T04:54:03;19.60;53.40
16901;DHT22;8567;52.540;6.434;2024-03-23T04:56:30;19.60;53.40
16901;DHT22;8567;52.540;6.434;2024-03-23T04:58:58;19.60;53.50
16901;DHT22;8567;52.540;6.434;2024-03-23T05:01:27;19.60;53.40
16901;DHT22;8567;52.540;6.434;2024-03-23T05:03:54;19.60;53.40
16901;DHT22;8567;52.540;6.434;2024-03-23T05:06:20;19.60;53.40
16901;DHT22;8567;52.540;6.434;2024-03-23T05:08:46;19.50;53.50
16901;DHT22;8567;52.540;6.434;2024-03-23T05:11:12;19.50;53.40
16901;DHT22;8567;52.540;6.434;2024-03-23T05:13:39;19.50;53.40
16901;DHT22;8567;52.540;6.434;2024-03-23T05:16:07;19.50;53.50
16901;DHT22;8567;52.540;6.434;2024-03-23T05:18:34;19.50;53.50
16901;DHT22;8567;52.540;6.434;2024-03-23T05:21:00;19.50;53.50
16901;DHT22;8567;52.540;6.434;2024-03-23T05:23:28;19.50;53.50
16901;DHT22;8567;52.540;6.434;2024-03-23T05:25:54;19.50;53.50
16901;DHT22;8567;52.540;6.434;2024-03-23T05:28:21;19.50;53.50
16901;DHT22;8567;52.540;6.434;2024-03-23T05:30:50;19.50;53.50
16901;DHT22;8567;52.540;6.434;2024-03-23T05:33:19;19.50;53.50
16901;DHT22;8567;52.540;6.434;2024-03-23T05:35:45;19.50;53.60
16901;DHT22;8567;52.540;6.434;2024-03-23T05:38:13;19.50;53.50
16901;DHT22;8567;52.540;6.434;2024-03-23T05:40:39;19.50;53.50
16901;DHT22;8567;52.540;6.434;2024-03-23T05:43:06;19.50;53.50
16901;DHT22;8567;52.540;6.434;2024-03-23T05:45:32;19.50;53.50
16901;DHT22;8567;52.540;6.434;2024-03-23T05:47:58;19.50;53.50
16901;DHT22;8567;52.540;6.434;2024-03-23T05:50:26;19.50;53.40
16901;DHT22;8567;52.540;6.434;2024-03-23T05:52:52;19.50;53.40
16901;DHT22;8567;52.540;6.434;2024-03-23T05:55:18;19.50;53.50
16901;DHT22;8567;52.540;6.434;2024-03-23T05:57:45;19.50;53.40
16901;DHT22;8567;52.540;6.434;2024-03-23T06:00:12;19.50;53.50
16901;DHT22;8567;52.540;6.434;2024-03-23T06:02:41;19.50;53.40
16901;DHT22;8567;52.540;6.434;2024-03-23T06:05:10;19.50;53.40
16901;DHT22;8567;52.540;6.434;2024-03-23T06:07:37;19.50;53.40
16901;DHT22;8567;52.540;6.434;2024-03-23T06:10:05;19.50;53.40
16901;DHT22;8567;52.540;6.434;2024-03-23T06:12:31;19.50;53.40
16901;DHT22;8567;52.540;6.434;2024-03-23T06:14:58;19.50;53.30
16901;DHT22;8567;52.540;6.434;2024-03-23T06:17:23;19.50;53.30
16901;DHT22;8567;52.540;6.434;2024-03-23T06:19:50;19.50;53.20
16901;DHT22;8567;52.540;6.434;2024-03-23T06:22:16;19.50;53.00
16901;DHT22;8567;52.540;6.434;2024-03-23T06:24:44;19.60;52.80
16901;DHT22;8567;52.540;6.434;2024-03-23T06:27:10;19.50;52.60
16901;DHT22;8567;52.540;6.434;2024-03-23T06:29:37;19.50;52.70
16901;DHT22;8567;52.540;6.434;2024-03-23T06:32:02;19.50;52.80
16901;DHT22;8567;52.540;6.434;2024-03-23T06:34:30;19.50;52.80
16901;DHT22;8567;52.540;6.434;2024-03-23T06:36:56;19.50;52.70
16901;DHT22;8567;52.540;6.434;2024-03-23T06:39:22;19.50;52.70
16901;DHT22;8567;52.540;6.434;2024-03-23T06:41:53;19.50;52.60
16901;DHT22;8567;52.540;6.434;2024-03-23T06:44:19;19.50;52.50
16901;DHT22;8567;52.540;6.434;2024-03-23T06:46:46;19.50;52.60
16901;DHT22;8567;52.540;6.434;2024-03-23T06:49:13;19.50;52.50
16901;DHT22;8567;52.540;6.434;2024-03-23T06:51:40;19.50;52.50
16901;DHT22;8567;52.540;6.434;2024-03-23T06:54:05;19.50;52.60
16901;DHT22;8567;52.540;6.434;2024-03-23T06:56:32;19.50;52.30
16901;DHT22;8567;52.540;6.434;2024-03-23T06:59:00;19.50;52.10
16901;DHT22;8567;52.540;6.434;2024-03-23T07:01:26;19.50;52.10
16901;DHT22;8567;52.540;6.434;2024-03-23T07:03:54;19.50;52.10
16901;DHT22;8567;52.540;6.434;2024-03-23T07:06:21;19.50;51.80
16901;DHT22;8567;52.540;6.434;2024-03-23T07:08:46;19.50;51.50
16901;DHT22;8567;52.540;6.434;2024-03-23T07:11:18;19.50;51.60
16901;DHT22;8567;52.540;6.434;2024-03-23T07:13:45;19.50;51.70
16901;DHT22;8567;52.540;6.434;2024-03-23T07:16:15;19.50;51.70
16901;DHT22;8567;52.540;6.434;2024-03-23T07:18:42;19.50;51.80
16901;DHT22;8567;52.540;6.434;2024-03-23T07:21:08;19.60;51.80
16901;DHT22;8567;52.540;6.434;2024-03-23T07:23:35;19.60;51.70
16901;DHT22;8567;52.540;6.434;2024-03-23T07:26:02;19.60;51.70
16901;DHT22;8567;52.540;6.434;2024-03-23T07:28:30;19.60;51.40
16901;DHT22;8567;52.540;6.434;2024-03-23T07:31:04;19.60;51.10
16901;DHT22;8567;52.540;6.434;2024-03-23T07:33:33;19.60;50.90
16901;DHT22;8567;52.540;6.434;2024-03-23T07:35:59;19.60;50.90
16901;DHT22;8567;52.540;6.434;2024-03-23T07:38:27;19.60;50.90
16901;DHT22;8567;52.540;6.434;2024-03-23T07:41:02;19.60;51.20
16901;DHT22;8567;52.540;6.434;2024-03-23T07:43:29;19.50;51.10
16901;DHT22;8567;52.540;6.434;2024-03-23T07:45:55;19.50;51.10
16901;DHT22;8567;52.540;6.434;2024-03-23T07:48:22;19.60;51.10
16901;DHT22;8567;52.540;6.434;2024-03-23T07:50:58;19.60;51.20
16901;DHT22;8567;52.540;6.434;2024-03-23T07:53:24;19.50;51.10
16901;DHT22;8567;52.540;6.434;2024-03-23T07:55:54;19.50;51.30
16901;DHT22;8567;52.540;6.434;2024-03-23T07:58:21;19.60;51.50
16901;DHT22;8567;52.540;6.434;2024-03-23T08:00:46;19.60;51.60
16901;DHT22;8567;52.540;6.434;2024-03-23T08:03:13;19.60;51.80
16901;DHT22;8567;52.540;6.434;2024-03-23T08:05:39;19.60;51.80
16901;DHT22;8567;52.540;6.434;2024-03-23T08:08:07;19.50;51.80
16901;DHT22;8567;52.540;6.434;2024-03-23T08:10:33;19.50;51.80
16901;DHT22;8567;52.540;6.434;2024-03-23T08:13:00;19.60;51.80
16901;DHT22;8567;52.540;6.434;2024-03-23T08:15:26;19.60;51.90
16901;DHT22;8567;52.540;6.434;2024-03-23T08:17:52;19.60;52.00
16901;DHT22;8567;52.540;6.434;2024-03-23T08:20:18;19.60;51.80
16901;DHT22;8567;52.540;6.434;2024-03-23T08:22:45;19.60;51.80
16901;DHT22;8567;52.540;6.434;2024-03-23T08:25:12;19.60;51.80
16901;DHT22;8567;52.540;6.434;2024-03-23T08:27:39;19.60;51.70
16901;DHT22;8567;52.540;6.434;2024-03-23T08:30:06;19.60;51.60
16901;DHT22;8567;52.540;6.434;2024-03-23T08:32:33;19.60;51.70
16901;DHT22;8567;52.540;6.434;2024-03-23T08:34:58;19.60;51.60
16901;DHT22;8567;52.540;6.434;2024-03-23T08:37:25;19.60;51.40
16901;DHT22;8567;52.540;6.434;2024-03-23T08:39:51;19.50;51.20
16901;DHT22;8567;52.540;6.434;2024-03-23T08:42:19;19.50;51.10
16901;DHT22;8567;52.540;6.434;2024-03-23T08:44:47;19.60;51.00
16901;DHT22;8567;52.540;6.434;2024-03-23T08:47:15;19.50;51.20
16901;DHT22;8567;52.540;6.434;2024-03-23T08:49:41;19.60;51.10
16901;DHT22;8567;52.540;6.434;2024-03-23T08:52:08;19.50;51.40
16901;DHT22;8567;52.540;6.434;2024-03-23T08:54:34;19.50;51.80
16901;DHT22;8567;52.540;6.434;2024-03-23T08:57:01;19.50;52.00
16901;DHT22;8567;52.540;6.434;2024-03-23T08:59:28;19.60;52.20
16901;DHT22;8567;52.540;6.434;2024-03-23T09:01:56;19.50;52.30
16901;DHT22;8567;52.540;6.434;2024-03-23T09:04:22;19.60;52.40
16901;DHT22;8567;52.540;6.434;2024-03-23T09:06:48;19.60;52.10
16901;DHT22;8567;52.540;6.434;2024-03-23T09:09:15;19.60;51.10
16901;DHT22;8567;52.540;6.434;2024-03-23T09:11:42;19.60;50.50
16901;DHT22;8567;52.540;6.434;2024-03-23T09:14:08;19.60;50.30
16901;DHT22;8567;52.540;6.434;2024-03-23T09:16:36;19.60;50.00
16901;DHT22;8567;52.540;6.434;2024-03-23T09:19:02;19.60;49.80
16901;DHT22;8567;52.540;6.434;2024-03-23T09:21:29;19.60;50.10
16901;DHT22;8567;52.540;6.434;2024-03-23T09:23:55;19.60;50.80
16901;DHT22;8567;52.540;6.434;2024-03-23T09:26:22;19.60;51.20
16901;DHT22;8567;52.540;6.434;2024-03-23T09:28:48;19.60;51.50
16901;DHT22;8567;52.540;6.434;2024-03-23T09:31:15;19.60;52.90
16901;DHT22;8567;52.540;6.434;2024-03-23T09:33:42;19.60;53.90
16901;DHT22;8567;52.540;6.434;2024-03-23T09:36:09;19.60;54.10
16901;DHT22;8567;52.540;6.434;2024-03-23T09:38:35;19.60;54.40
16901;DHT22;8567;52.540;6.434;2024-03-23T09:41:07;19.60;54.10
16901;DHT22;8567;52.540;6.434;2024-03-23T09:43:33;19.60;53.80
16901;DHT22;8567;52.540;6.434;2024-03-23T09:46:01;19.60;53.50
16901;DHT22;8567;52.540;6.434;2024-03-23T09:48:28;19.60;53.40
16901;DHT22;8567;52.540;6.434;2024-03-23T09:50:56;19.60;53.20
16901;DHT22;8567;52.540;6.434;2024-03-23T09:53:22;19.60;53.10
16901;DHT22;8567;52.540;6.434;2024-03-23T09:55:49;19.60;53.00
16901;DHT22;8567;52.540;6.434;2024-03-23T09:58:16;19.60;52.90
16901;DHT22;8567;52.540;6.434;2024-03-23T10:00:43;19.60;52.70
16901;DHT22;8567;52.540;6.434;2024-03-23T10:03:09;19.60;52.40
16901;DHT22;8567;52.540;6.434;2024-03-23T10:05:37;19.60;52.10
16901;DHT22;8567;52.540;6.434;2024-03-23T10:08:17;19.60;51.80
16901;DHT22;8567;52.540;6.434;2024-03-23T10:10:45;19.60;51.70
16901;DHT22;8567;52.540;6.434;2024-03-23T10:13:11;19.60;51.60
16901;DHT22;8567;52.540;6.434;2024-03-23T10:15:55;19.60;51.40
16901;DHT22;8567;52.540;6.434;2024-03-23T10:18:21;19.60;51.40
16901;DHT22;8567;52.540;6.434;2024-03-23T10:20:51;19.60;51.50
16901;DHT22;8567;52.540;6.434;2024-03-23T10:23:18;19.60;51.50
16901;DHT22;8567;52.540;6.434;2024-03-23T10:25:46;19.60;51.60
16901;DHT22;8567;52.540;6.434;2024-03-23T10:28:11;19.60;51.60
16901;DHT22;8567;52.540;6.434;2024-03-23T10:30:38;19.60;51.60
16901;DHT22;8567;52.540;6.434;2024-03-23T10:33:09;19.60;51.50
16901;DHT22;8567;52.540;6.434;2024-03-23T10:35:37;19.60;51.30
16901;DHT22;8567;52.540;6.434;2024-03-23T10:38:05;19.60;51.40
16901;DHT22;8567;52.540;6.434;2024-03-23T10:40:34;19.60;51.30
16901;DHT22;8567;52.540;6.434;2024-03-23T10:43:00;19.60;51.10
16901;DHT22;8567;52.540;6.434;2024-03-23T10:45:29;19.60;51.00
16901;DHT22;8567;52.540;6.434;2024-03-23T10:47:55;19.70;50.90
16901;DHT22;8567;52.540;6.434;2024-03-23T10:50:23;19.60;50.80
16901;DHT22;8567;52.540;6.434;2024-03-23T10:52:49;19.60;50.70
16901;DHT22;8567;52.540;6.434;2024-03-23T10:55:17;19.70;50.70
16901;DHT22;8567;52.540;6.434;2024-03-23T10:57:49;19.60;50.80
16901;DHT22;8567;52.540;6.434;2024-03-23T11:00:18;19.70;50.80
16901;DHT22;8567;52.540;6.434;2024-03-23T11:02:44;19.70;50.70
16901;DHT22;8567;52.540;6.434;2024-03-23T11:05:30;19.70;50.50
16901;DHT22;8567;52.540;6.434;2024-03-23T11:07:56;19.70;50.70
16901;DHT22;8567;52.540;6.434;2024-03-23T11:10:27;19.60;50.60
16901;DHT22;8567;52.540;6.434;2024-03-23T11:12:56;19.70;50.60
16901;DHT22;8567;52.540;6.434;2024-03-23T11:15:23;19.60;50.50
16901;DHT22;8567;52.540;6.434;2024-03-23T11:18:05;19.70;50.40
16901;DHT22;8567;52.540;6.434;2024-03-23T11:20:34;19.70;50.40
16901;DHT22;8567;52.540;6.434;2024-03-23T11:23:00;19.70;50.50
16901;DHT22;8567;52.540;6.434;2024-03-23T11:25:27;19.70;50.60
16901;DHT22;8567;52.540;6.434;2024-03-23T11:27:55;19.70;50.60
16901;DHT22;8567;52.540;6.434;2024-03-23T11:30:24;19.70;50.60
16901;DHT22;8567;52.540;6.434;2024-03-23T11:32:51;19.70;50.60
16901;DHT22;8567;52.540;6.434;2024-03-23T11:35:27;19.70;50.50
16901;DHT22;8567;52.540;6.434;2024-03-23T11:38:09;19.70;50.40
16901;DHT22;8567;52.540;6.434;2024-03-23T11:40:38;19.70;50.50
16901;DHT22;8567;52.540;6.434;2024-03-23T11:43:06;19.70;50.50
16901;DHT22;8567;52.540;6.434;2024-03-23T11:45:35;19.80;50.50
16901;DHT22;8567;52.540;6.434;2024-03-23T11:48:08;19.80;50.50
16901;DHT22;8567;52.540;6.434;2024-03-23T11:50:37;19.80;50.50
16901;DHT22;8567;52.540;6.434;2024-03-23T11:53:13;19.80;50.20
16901;DHT22;8567;52.540;6.434;2024-03-23T11:55:42;19.80;50.00
16901;DHT22;8567;52.540;6.434;2024-03-23T11:58:09;19.80;49.70
16901;DHT22;8567;52.540;6.434;2024-03-23T12:00:37;19.80;49.50
16901;DHT22;8567;52.540;6.434;2024-03-23T12:03:03;19.80;49.20
16901;DHT22;8567;52.540;6.434;2024-03-23T12:05:31;19.80;48.90
16901;DHT22;8567;52.540;6.434;2024-03-23T12:08:15;19.80;48.80
16901;DHT22;8567;52.540;6.434;2024-03-23T12:10:44;19.80;48.80
16901;DHT22;8567;52.540;6.434;2024-03-23T12:13:15;19.80;48.70
16901;DHT22;8567;52.540;6.434;2024-03-23T12:15:42;19.80;48.50
16901;DHT22;8567;52.540;6.434;2024-03-23T12:18:09;19.90;48.20
16901;DHT22;8567;52.540;6.434;2024-03-23T12:20:37;19.90;47.90
16901;DHT22;8567;52.540;6.434;2024-03-23T12:23:07;19.90;47.50
16901;DHT22;8567;52.540;6.434;2024-03-23T12:25:35;19.90;47.20
16901;DHT22;8567;52.540;6.434;2024-03-23T12:28:00;19.90;46.60
16901;DHT22;8567;52.540;6.434;2024-03-23T12:30:29;20.00;46.30
16901;DHT22;8567;52.540;6.434;2024-03-23T12:32:54;20.00;46.10
16901;DHT22;8567;52.540;6.434;2024-03-23T12:35:22;20.00;46.20
16901;DHT22;8567;52.540;6.434;2024-03-23T12:37:48;20.00;46.20
16901;DHT22;8567;52.540;6.434;2024-03-23T12:40:15;20.00;46.20
16901;DHT22;8567;52.540;6.434;2024-03-23T12:42:41;20.00;46.30
16901;DHT22;8567;52.540;6.434;2024-03-23T12:45:08;20.00;46.30
16901;DHT22;8567;52.540;6.434;2024-03-23T12:47:35;20.00;46.40
16901;DHT22;8567;52.540;6.434;2024-03-23T12:50:03;20.00;46.60
16901;DHT22;8567;52.540;6.434;2024-03-23T12:52:28;20.00;46.80
16901;DHT22;8567;52.540;6.434;2024-03-23T12:54:56;20.00;46.90
16901;DHT22;8567;52.540;6.434;2024-03-23T12:57:23;20.10;47.10
16901;DHT22;8567;52.540;6.434;2024-03-23T12:59:50;20.10;47.20
16901;DHT22;8567;52.540;6.434;2024-03-23T13:02:17;20.10;47.20
16901;DHT22;8567;52.540;6.434;2024-03-23T13:04:49;20.10;47.20
16901;DHT22;8567;52.540;6.434;2024-03-23T13:07:15;20.10;47.20
16901;DHT22;8567;52.540;6.434;2024-03-23T13:09:41;20.10;47.30
16901;DHT22;8567;52.540;6.434;2024-03-23T13:12:08;20.10;47.20
16901;DHT22;8567;52.540;6.434;2024-03-23T13:14:35;20.10;47.30
16901;DHT22;8567;52.540;6.434;2024-03-23T13:17:01;20.10;47.30
16901;DHT22;8567;52.540;6.434;2024-03-23T13:19:29;20.10;47.00
16901;DHT22;8567;52.540;6.434;2024-03-23T13:21:58;20.10;47.10
16901;DHT22;8567;52.540;6.434;2024-03-23T13:24:25;20.10;46.80
16901;DHT22;8567;52.540;6.434;2024-03-23T13:26:52;20.10;47.10
16901;DHT22;8567;52.540;6.434;2024-03-23T13:29:19;20.10;46.80
16901;DHT22;8567;52.540;6.434;2024-03-23T13:31:45;20.10;47.10
16901;DHT22;8567;52.540;6.434;2024-03-23T13:34:12;20.20;47.20
16901;DHT22;8567;52.540;6.434;2024-03-23T13:36:40;20.20;47.20
16901;DHT22;8567;52.540;6.434;2024-03-23T13:39:08;20.20;47.20
16901;DHT22;8567;52.540;6.434;2024-03-23T13:41:37;20.30;47.30
16901;DHT22;8567;52.540;6.434;2024-03-23T13:44:04;20.30;47.30
16901;DHT22;8567;52.540;6.434;2024-03-23T13:46:30;20.20;47.30
16901;DHT22;8567;52.540;6.434;2024-03-23T13:48:57;20.20;47.30
16901;DHT22;8567;52.540;6.434;2024-03-23T13:51:23;20.20;47.20
16901;DHT22;8567;52.540;6.434;2024-03-23T13:53:52;20.20;47.30
16901;DHT22;8567;52.540;6.434;2024-03-23T13:56:19;20.20;47.30
16901;DHT22;8567;52.540;6.434;2024-03-23T13:58:46;20.20;47.20
16901;DHT22;8567;52.540;6.434;2024-03-23T14:01:13;20.20;47.30
16901;DHT22;8567;52.540;6.434;2024-03-23T14:03:41;20.30;47.30
16901;DHT22;8567;52.540;6.434;2024-03-23T14:06:07;20.30;47.40
16901;DHT22;8567;52.540;6.434;2024-03-23T14:08:34;20.30;47.40
16901;DHT22;8567;52.540;6.434;2024-03-23T14:11:02;20.30;47.50
16901;DHT22;8567;52.540;6.434;2024-03-23T14:13:31;20.30;47.60
16901;DHT22;8567;52.540;6.434;2024-03-23T14:15:57;20.40;47.70
16901;DHT22;8567;52.540;6.434;2024-03-23T14:18:24;20.40;47.60
16901;DHT22;8567;52.540;6.434;2024-03-23T14:20:52;20.40;47.70
16901;DHT22;8567;52.540;6.434;2024-03-23T14:23:19;20.40;47.80
16901;DHT22;8567;52.540;6.434;2024-03-23T14:25:45;20.40;47.90
16901;DHT22;8567;52.540;6.434;2024-03-23T14:28:12;20.40;48.00
16901;DHT22;8567;52.540;6.434;2024-03-23T14:30:42;20.40;48.10
16901;DHT22;8567;52.540;6.434;2024-03-23T14:33:09;20.40;48.10
16901;DHT22;8567;52.540;6.434;2024-03-23T14:35:35;20.40;48.00
16901;DHT22;8567;52.540;6.434;2024-03-23T14:38:03;20.40;48.00
16901;DHT22;8567;52.540;6.434;2024-03-23T14:40:29;20.40;47.90
16901;DHT22;8567;52.540;6.434;2024-03-23T14:42:56;20.40;47.90
16901;DHT22;8567;52.540;6.434;2024-03-23T14:45:22;20.40;48.00
16901;DHT22;8567;52.540;6.434;2024-03-23T14:47:51;20.40;48.00
16901;DHT22;8567;52.540;6.434;2024-03-23T14:50:17;20.40;47.90
16901;DHT22;8567;52.540;6.434;2024-03-23T14:52:44;20.40;48.00
16901;DHT22;8567;52.540;6.434;2024-03-23T14:55:10;20.40;48.00
16901;DHT22;8567;52.540;6.434;2024-03-23T14:57:37;20.40;48.20
16901;DHT22;8567;52.540;6.434;2024-03-23T15:00:06;20.40;48.20
16901;DHT22;8567;52.540;6.434;2024-03-23T15:02:33;20.50;48.30
16901;DHT22;8567;52.540;6.434;2024-03-23T15:05:01;20.50;48.40
16901;DHT22;8567;52.540;6.434;2024-03-23T15:07:29;20.50;48.40
16901;DHT22;8567;52.540;6.434;2024-03-23T15:09:55;20.50;48.30
16901;DHT22;8567;52.540;6.434;2024-03-23T15:12:22;20.50;48.00
16901;DHT22;8567;52.540;6.434;2024-03-23T15:14:48;20.40;47.80
16901;DHT22;8567;52.540;6.434;2024-03-23T15:17:15;20.40;47.50
16901;DHT22;8567;52.540;6.434;2024-03-23T15:19:40;20.40;47.60
16901;DHT22;8567;52.540;6.434;2024-03-23T15:22:09;20.40;47.70
16901;DHT22;8567;52.540;6.434;2024-03-23T15:24:36;20.40;47.50
16901;DHT22;8567;52.540;6.434;2024-03-23T15:27:03;20.40;47.40
16901;DHT22;8567;52.540;6.434;2024-03-23T15:29:29;20.40;47.20
16901;DHT22;8567;52.540;6.434;2024-03-23T15:31:57;20.40;47.20
16901;DHT22;8567;52.540;6.434;2024-03-23T15:34:22;20.40;47.30
16901;DHT22;8567;52.540;6.434;2024-03-23T15:36:49;20.40;47.30
16901;DHT22;8567;52.540;6.434;2024-03-23T15:39:17;20.40;47.40
16901;DHT22;8567;52.540;6.434;2024-03-23T15:41:45;20.40;47.30
16901;DHT22;8567;52.540;6.434;2024-03-23T15:44:10;20.40;47.30
16901;DHT22;8567;52.540;6.434;2024-03-23T15:46:37;20.40;47.40
16901;DHT22;8567;52.540;6.434;2024-03-23T15:49:03;20.40;47.40
16901;DHT22;8567;52.540;6.434;2024-03-23T15:51:31;20.40;47.30
16901;DHT22;8567;52.540;6.434;2024-03-23T15:53:58;20.40;47.30
16901;DHT22;8567;52.540;6.434;2024-03-23T15:56:28;20.30;47.10
16901;DHT22;8567;52.540;6.434;2024-03-23T15:58:54;20.30;47.10
16901;DHT22;8567;52.540;6.434;2024-03-23T16:01:21;20.30;46.80
16901;DHT22;8567;52.540;6.434;2024-03-23T16:03:47;20.30;46.70
16901;DHT22;8567;52.540;6.434;2024-03-23T16:06:14;20.30;46.70
16901;DHT22;8567;52.540;6.434;2024-03-23T16:08:40;20.30;46.80
16901;DHT22;8567;52.540;6.434;2024-03-23T16:11:07;20.30;46.70
16901;DHT22;8567;52.540;6.434;2024-03-23T16:13:35;20.30;46.60
16901;DHT22;8567;52.540;6.434;2024-03-23T16:16:03;20.20;46.30
16901;DHT22;8567;52.540;6.434;2024-03-23T16:18:32;20.20;46.10
16901;DHT22;8567;52.540;6.434;2024-03-23T16:21:01;20.20;45.90
16901;DHT22;8567;52.540;6.434;2024-03-23T16:23:28;20.20;45.70
16901;DHT22;8567;52.540;6.434;2024-03-23T16:25:55;20.20;45.50
16901;DHT22;8567;52.540;6.434;2024-03-23T16:28:23;20.20;45.60
16901;DHT22;8567;52.540;6.434;2024-03-23T16:30:55;20.20;45.50
16901;DHT22;8567;52.540;6.434;2024-03-23T16:33:21;20.20;45.20
16901;DHT22;8567;52.540;6.434;2024-03-23T16:35:56;20.20;45.30
16901;DHT22;8567;52.540;6.434;2024-03-23T16:38:21;20.10;45.30